PHTO/ITO METAR and TAF weather

Enter ICAO airport designator
Station Type Date Time Source
PHTO METAR 2019/10/22 16:53 UTC NOAA

PHTO 221653Z 00000KT 10SM BKN026 OVC060 25/21 A3003 RMK AO2 SLP166 T02500206


Station Type Date Time Source
PHTO Decoded METAR 2019/10/22 16:53 UTC NOAA

HILO INTERNATIONAL AIRPORT, HI, United States (PHTO) 19-43N 155-03W 12M
Oct 22, 2019 - 12:53 PM EDT / 2019.10.22 1653 UTC
Wind: Calm:0
Visibility: 10 mile(s):0
Sky conditions: overcast
Temperature: 77.0 F (25.0 C)
Dew Point: 69.1 F (20.6 C)
Relative Humidity: 76%
Pressure (altimeter): 30.03 in. Hg (1016 hPa)
ob: PHTO 221653Z 00000KT 10SM BKN026 OVC060 25/21 A3003 RMK AO2 SLP166 T02500206
cycle: 17

Station Type Date Time Source
PHTO TAF 2019/10/22 18:22 UTC NOAA

TAF PHTO 221720Z 2218/2318 24006KT P6SM VCSH SCT025 BKN045
TEMPO 2218/2220 5SM -SHRA BKN025
FM222000 07007KT P6SM VCSH SCT020 BKN035
FM230500 23006KT P6SM SCT025 BKN045

Example: see airport list